sensor_id;sensor_type;location;lat;lon;timestamp;pressure;altitude;pressure_sealevel;temperature;humidity
13476;BME280;6810;63.824;20.288;2023-04-28T00:01:53;101428.72;;;2.17;76.44
13476;BME280;6810;63.824;20.288;2023-04-28T00:04:41;101416.53;;;2.08;77.46
13476;BME280;6810;63.824;20.288;2023-04-28T00:07:28;101434.03;;;2.12;77.23
13476;BME280;6810;63.824;20.288;2023-04-28T00:10:15;101434.88;;;2.13;77.22
13476;BME280;6810;63.824;20.288;2023-04-28T00:13:02;101438.44;;;2.09;76.96
13476;BME280;6810;63.824;20.288;2023-04-28T00:15:49;101446.34;;;2.09;77.44
13476;BME280;6810;63.824;20.288;2023-04-28T00:18:37;101443.75;;;2.04;77.17
13476;BME280;6810;63.824;20.288;2023-04-28T00:21:24;101424.66;;;1.89;77.33
13476;BME280;6810;63.824;20.288;2023-04-28T00:24:11;101443.81;;;2.01;77.42
13476;BME280;6810;63.824;20.288;2023-04-28T00:26:58;101454.34;;;2.00;78.15
13476;BME280;6810;63.824;20.288;2023-04-28T00:29:45;101455.22;;;2.00;77.70
13476;BME280;6810;63.824;20.288;2023-04-28T00:32:32;101453.44;;;2.01;78.29
13476;BME280;6810;63.824;20.288;2023-04-28T00:35:20;101449.94;;;2.02;78.36
13476;BME280;6810;63.824;20.288;2023-04-28T00:38:07;101456.03;;;2.02;78.52
13476;BME280;6810;63.824;20.288;2023-04-28T00:40:54;101450.78;;;2.02;78.21
13476;BME280;6810;63.824;20.288;2023-04-28T00:43:45;101408.25;;;1.68;77.79
13476;BME280;6810;63.824;20.288;2023-04-28T00:46:33;101457.78;;;2.05;78.26
13476;BME280;6810;63.824;20.288;2023-04-28T00:49:20;101476.19;;;2.05;78.03
13476;BME280;6810;63.824;20.288;2023-04-28T00:52:08;101471.75;;;2.07;77.76
13476;BME280;6810;63.824;20.288;2023-04-28T00:54:56;101477.94;;;2.04;78.73
13476;BME280;6810;63.824;20.288;2023-04-28T00:57:44;101470.94;;;2.03;78.14
13476;BME280;6810;63.824;20.288;2023-04-28T01:00:31;101456.97;;;1.98;78.25
13476;BME280;6810;63.824;20.288;2023-04-28T01:03:19;101470.09;;;2.01;78.50
13476;BME280;6810;63.824;20.288;2023-04-28T01:06:08;101470.97;;;2.00;78.98
13476;BME280;6810;63.824;20.288;2023-04-28T01:08:58;101472.72;;;2.01;78.37
13476;BME280;6810;63.824;20.288;2023-04-28T01:11:45;101467.47;;;2.01;78.69
13476;BME280;6810;63.824;20.288;2023-04-28T01:14:41;101473.59;;;2.03;78.55
13476;BME280;6810;63.824;20.288;2023-04-28T01:17:30;101463.09;;;2.02;78.90
13476;BME280;6810;63.824;20.288;2023-04-28T01:20:17;101468.31;;;2.03;79.46
13476;BME280;6810;63.824;20.288;2023-04-28T01:23:04;101466.53;;;2.04;78.74
13476;BME280;6810;63.824;20.288;2023-04-28T01:25:51;101465.69;;;2.03;78.70
13476;BME280;6810;63.824;20.288;2023-04-28T01:28:38;101463.94;;;2.02;78.80
13476;BME280;6810;63.824;20.288;2023-04-28T01:31:25;101394.34;;;1.59;79.27
13476;BME280;6810;63.824;20.288;2023-04-28T01:34:13;101456.06;;;2.01;78.93
13476;BME280;6810;63.824;20.288;2023-04-28T01:37:00;101452.63;;;1.96;79.46
13476;BME280;6810;63.824;20.288;2023-04-28T01:39:47;101446.53;;;1.92;79.66
13476;BME280;6810;63.824;20.288;2023-04-28T01:42:38;101446.56;;;1.91;79.42
13476;BME280;6810;63.824;20.288;2023-04-28T01:45:25;101441.38;;;1.83;78.80
13476;BME280;6810;63.824;20.288;2023-04-28T01:48:12;101444.00;;;1.85;79.06
13476;BME280;6810;63.824;20.288;2023-04-28T01:51:00;101452.75;;;1.82;79.74
13476;BME280;6810;63.824;20.288;2023-04-28T01:53:47;101443.19;;;1.78;79.40
13476;BME280;6810;63.824;20.288;2023-04-28T01:56:34;101431.06;;;1.68;79.11
13476;BME280;6810;63.824;20.288;2023-04-28T01:59:25;101441.47;;;1.75;79.44
13476;BME280;6810;63.824;20.288;2023-04-28T02:02:12;101443.22;;;1.75;79.11
13476;BME280;6810;63.824;20.288;2023-04-28T02:05:00;101442.34;;;1.74;79.79
13476;BME280;6810;63.824;20.288;2023-04-28T02:07:49;101438.88;;;1.74;79.37
13476;BME280;6810;63.824;20.288;2023-04-28T02:10:36;101445.88;;;1.73;79.54
13476;BME280;6810;63.824;20.288;2023-04-28T02:13:23;101444.13;;;1.74;79.70
13476;BME280;6810;63.824;20.288;2023-04-28T02:16:10;101391.06;;;1.40;79.06
13476;BME280;6810;63.824;20.288;2023-04-28T02:18:57;101404.13;;;1.46;79.77
13476;BME280;6810;63.824;20.288;2023-04-28T02:21:44;101454.69;;;1.69;79.37
13476;BME280;6810;63.824;20.288;2023-04-28T02:24:34;101453.81;;;1.69;79.22
13476;BME280;6810;63.824;20.288;2023-04-28T02:27:22;101457.31;;;1.68;79.78
13476;BME280;6810;63.824;20.288;2023-04-28T02:30:09;101446.00;;;1.61;79.19
13476;BME280;6810;63.824;20.288;2023-04-28T02:32:56;101459.09;;;1.64;79.46
13476;BME280;6810;63.824;20.288;2023-04-28T02:35:43;101450.34;;;1.64;80.00
13476;BME280;6810;63.824;20.288;2023-04-28T02:38:30;101449.50;;;1.63;79.85
13476;BME280;6810;63.824;20.288;2023-04-28T02:41:17;101452.97;;;1.64;79.98
13476;BME280;6810;63.824;20.288;2023-04-28T02:44:04;101444.25;;;1.62;79.62
13476;BME280;6810;63.824;20.288;2023-04-28T02:46:51;101447.75;;;1.61;79.94
13476;BME280;6810;63.824;20.288;2023-04-28T02:49:39;101446.03;;;1.60;79.52
13476;BME280;6810;63.824;20.288;2023-04-28T02:52:26;101448.66;;;1.58;80.20
13476;BME280;6810;63.824;20.288;2023-04-28T02:55:15;101440.88;;;1.49;79.78
13476;BME280;6810;63.824;20.288;2023-04-28T02:58:02;101440.81;;;1.55;79.46
13476;BME280;6810;63.824;20.288;2023-04-28T03:00:49;101443.47;;;1.54;79.63
13476;BME280;6810;63.824;20.288;2023-04-28T03:03:36;101432.13;;;1.47;79.68
13476;BME280;6810;63.824;20.288;2023-04-28T03:06:23;101439.06;;;1.53;79.79
13476;BME280;6810;63.824;20.288;2023-04-28T03:09:11;101445.22;;;1.52;80.29
13476;BME280;6810;63.824;20.288;2023-04-28T03:11:58;101439.09;;;1.51;79.63
13476;BME280;6810;63.824;20.288;2023-04-28T03:14:45;101431.25;;;1.45;79.97
13476;BME280;6810;63.824;20.288;2023-04-28T03:17:34;101447.88;;;1.49;80.00
13476;BME280;6810;63.824;20.288;2023-04-28T03:20:21;101441.75;;;1.47;79.92
13476;BME280;6810;63.824;20.288;2023-04-28T03:23:08;101441.81;;;1.42;80.40
13476;BME280;6810;63.824;20.288;2023-04-28T03:25:56;101364.38;;;0.98;80.04
13476;BME280;6810;63.824;20.288;2023-04-28T03:28:43;101445.31;;;1.43;80.14
13476;BME280;6810;63.824;20.288;2023-04-28T03:31:30;101450.56;;;1.43;80.73
13476;BME280;6810;63.824;20.288;2023-04-28T03:34:17;101441.78;;;1.44;80.67
13476;BME280;6810;63.824;20.288;2023-04-28T03:37:04;101361.75;;;0.95;80.91
13476;BME280;6810;63.824;20.288;2023-04-28T03:39:51;101444.41;;;1.45;80.89
13476;BME280;6810;63.824;20.288;2023-04-28T03:42:57;101444.38;;;1.47;80.23
13476;BME280;6810;63.824;20.288;2023-04-28T03:46:03;101439.16;;;1.45;80.84
13476;BME280;6810;63.824;20.288;2023-04-28T03:48:51;101444.34;;;1.50;80.36
13476;BME280;6810;63.824;20.288;2023-04-28T03:51:38;101443.50;;;1.51;80.97
13476;BME280;6810;63.824;20.288;2023-04-28T03:54:25;101426.03;;;1.42;80.76
13476;BME280;6810;63.824;20.288;2023-04-28T03:57:13;101422.56;;;1.42;80.87
13476;BME280;6810;63.824;20.288;2023-04-28T04:00:00;101450.44;;;1.56;80.26
13476;BME280;6810;63.824;20.288;2023-04-28T04:02:51;101432.09;;;1.50;81.03
13476;BME280;6810;63.824;20.288;2023-04-28T04:05:39;101445.13;;;1.61;80.80
13476;BME280;6810;63.824;20.288;2023-04-28T04:08:26;101441.63;;;1.62;80.86
13476;BME280;6810;63.824;20.288;2023-04-28T04:11:14;101440.69;;;1.66;81.25
13476;BME280;6810;63.824;20.288;2023-04-28T04:14:02;101445.94;;;1.67;80.88
13476;BME280;6810;63.824;20.288;2023-04-28T04:16:49;101442.41;;;1.70;80.85
13476;BME280;6810;63.824;20.288;2023-04-28T04:19:36;101442.34;;;1.73;81.41
13476;BME280;6810;63.824;20.288;2023-04-28T04:22:23;101437.09;;;1.73;81.07
13476;BME280;6810;63.824;20.288;2023-04-28T04:25:10;101437.06;;;1.76;81.42
13476;BME280;6810;63.824;20.288;2023-04-28T04:27:58;101428.38;;;1.71;81.54
13476;BME280;6810;63.824;20.288;2023-04-28T04:30:45;101426.56;;;1.74;81.45
13476;BME280;6810;63.824;20.288;2023-04-28T04:33:32;101410.91;;;1.65;81.32
13476;BME280;6810;63.824;20.288;2023-04-28T04:36:20;101447.44;;;1.88;80.91
13476;BME280;6810;63.824;20.288;2023-04-28T04:39:08;101452.69;;;1.90;81.38
13476;BME280;6810;63.824;20.288;2023-04-28T04:41:55;101454.38;;;1.95;80.93
13476;BME280;6810;63.824;20.288;2023-04-28T04:45:20;101403.91;;;1.66;81.32
13476;BME280;6810;63.824;20.288;2023-04-28T04:48:08;101447.31;;;2.02;81.30
13476;BME280;6810;63.824;20.288;2023-04-28T04:50:57;101449.91;;;2.05;81.82
13476;BME280;6810;63.824;20.288;2023-04-28T04:53:44;101433.34;;;1.97;81.12
13476;BME280;6810;63.824;20.288;2023-04-28T04:56:32;101459.44;;;2.12;81.18
13476;BME280;6810;63.824;20.288;2023-04-28T04:59:33;101447.13;;;2.15;82.09
13476;BME280;6810;63.824;20.288;2023-04-28T05:02:20;101453.16;;;2.23;81.90
13476;BME280;6810;63.824;20.288;2023-04-28T05:05:08;101465.38;;;2.27;81.13
13476;BME280;6810;63.824;20.288;2023-04-28T05:08:07;101382.69;;;1.83;81.08
13476;BME280;6810;63.824;20.288;2023-04-28T05:10:56;101406.19;;;1.96;81.90
13476;BME280;6810;63.824;20.288;2023-04-28T05:13:43;101458.28;;;2.35;81.46
13476;BME280;6810;63.824;20.288;2023-04-28T05:16:30;101448.72;;;2.28;81.05
13476;BME280;6810;63.824;20.288;2023-04-28T05:19:25;101466.94;;;2.40;81.02
13476;BME280;6810;63.824;20.288;2023-04-28T05:22:14;101455.63;;;2.37;81.29
13476;BME280;6810;63.824;20.288;2023-04-28T05:25:01;101466.88;;;2.46;82.01
13476;BME280;6810;63.824;20.288;2023-04-28T05:27:48;101468.59;;;2.50;81.25
13476;BME280;6810;63.824;20.288;2023-04-28T05:30:35;101458.94;;;2.48;80.80
13476;BME280;6810;63.824;20.288;2023-04-28T05:33:22;101467.66;;;2.54;82.12
13476;BME280;6810;63.824;20.288;2023-04-28T05:36:09;101472.88;;;2.57;81.12
13476;BME280;6810;63.824;20.288;2023-04-28T05:38:56;101468.44;;;2.61;82.12
13476;BME280;6810;63.824;20.288;2023-04-28T05:41:43;101474.53;;;2.64;82.04
13476;BME280;6810;63.824;20.288;2023-04-28T05:44:31;101467.44;;;2.69;80.96
13476;BME280;6810;63.824;20.288;2023-04-28T05:47:18;101469.16;;;2.72;81.29
13476;BME280;6810;63.824;20.288;2023-04-28T05:50:06;101470.84;;;2.76;81.63
13476;BME280;6810;63.824;20.288;2023-04-28T05:52:53;101470.81;;;2.79;81.42
13476;BME280;6810;63.824;20.288;2023-04-28T05:55:40;101443.75;;;2.69;81.65
13476;BME280;6810;63.824;20.288;2023-04-28T05:58:27;101470.75;;;2.82;80.84
13476;BME280;6810;63.824;20.288;2023-04-28T06:01:14;101468.06;;;2.85;81.39
13476;BME280;6810;63.824;20.288;2023-04-28T06:04:01;101475.06;;;2.89;81.51
13476;BME280;6810;63.824;20.288;2023-04-28T06:06:49;101475.84;;;2.94;80.69
13476;BME280;6810;63.824;20.288;2023-04-28T06:09:37;101474.00;;;2.99;81.49
13476;BME280;6810;63.824;20.288;2023-04-28T06:12:24;101460.91;;;2.94;80.62
13476;BME280;6810;63.824;20.288;2023-04-28T06:15:11;101470.31;;;3.09;81.28
13476;BME280;6810;63.824;20.288;2023-04-28T06:17:59;101471.09;;;3.15;80.99
13476;BME280;6810;63.824;20.288;2023-04-28T06:20:46;101475.41;;;3.19;81.25
13476;BME280;6810;63.824;20.288;2023-04-28T06:23:33;101480.66;;;3.22;81.12
13476;BME280;6810;63.824;20.288;2023-04-28T06:26:20;101473.56;;;3.26;80.97
13476;BME280;6810;63.824;20.288;2023-04-28T06:29:08;101469.19;;;3.25;80.78
13476;BME280;6810;63.824;20.288;2023-04-28T06:31:55;101483.13;;;3.33;81.15
13476;BME280;6810;63.824;20.288;2023-04-28T06:34:43;101479.53;;;3.37;81.45
13476;BME280;6810;63.824;20.288;2023-04-28T06:37:30;101483.00;;;3.40;81.26
13476;BME280;6810;63.824;20.288;2023-04-28T06:40:17;101482.88;;;3.46;80.20
13476;BME280;6810;63.824;20.288;2023-04-28T06:43:05;101487.16;;;3.52;79.89
13476;BME280;6810;63.824;20.288;2023-04-28T06:46:04;101486.25;;;3.56;80.38
13476;BME280;6810;63.824;20.288;2023-04-28T06:48:51;101477.34;;;3.62;80.12
13476;BME280;6810;63.824;20.288;2023-04-28T06:51:39;101480.78;;;3.67;80.51
13476;BME280;6810;63.824;20.288;2023-04-28T06:54:29;101485.09;;;3.71;79.80
13476;BME280;6810;63.824;20.288;2023-04-28T06:57:16;101482.34;;;3.75;80.28
13476;BME280;6810;63.824;20.288;2023-04-28T07:00:04;101475.31;;;3.77;80.82
13476;BME280;6810;63.824;20.288;2023-04-28T07:02:51;101479.47;;;3.89;80.37
13476;BME280;6810;63.824;20.288;2023-04-28T07:05:38;101474.97;;;3.94;79.75
13476;BME280;6810;63.824;20.288;2023-04-28T07:08:25;101472.22;;;4.00;79.40
13476;BME280;6810;63.824;20.288;2023-04-28T07:11:12;101468.69;;;3.99;78.86
13476;BME280;6810;63.824;20.288;2023-04-28T07:14:00;101399.81;;;3.72;79.97
13476;BME280;6810;63.824;20.288;2023-04-28T07:16:46;101487.69;;;4.18;79.76
13476;BME280;6810;63.824;20.288;2023-04-28T07:19:34;101488.47;;;4.23;78.85
13476;BME280;6810;63.824;20.288;2023-04-28T07:22:21;101491.91;;;4.26;79.44
13476;BME280;6810;63.824;20.288;2023-04-28T07:25:08;101460.44;;;4.16;78.67
13476;BME280;6810;63.824;20.288;2023-04-28T07:27:56;101484.72;;;4.33;78.06
13476;BME280;6810;63.824;20.288;2023-04-28T07:30:43;101462.19;;;4.18;78.96
13476;BME280;6810;63.824;20.288;2023-04-28T07:33:30;101487.25;;;4.37;77.75
13476;BME280;6810;63.824;20.288;2023-04-28T07:36:17;101490.66;;;4.44;77.63
13476;BME280;6810;63.824;20.288;2023-04-28T07:39:04;101485.41;;;4.42;77.55
13476;BME280;6810;63.824;20.288;2023-04-28T07:41:51;101494.13;;;4.47;77.15
13476;BME280;6810;63.824;20.288;2023-04-28T07:44:38;101494.97;;;4.49;77.66
13476;BME280;6810;63.824;20.288;2023-04-28T07:47:25;101501.94;;;4.52;78.48
13476;BME280;6810;63.824;20.288;2023-04-28T07:50:12;101501.91;;;4.53;78.02
13476;BME280;6810;63.824;20.288;2023-04-28T07:52:59;101495.72;;;4.54;78.04
13476;BME280;6810;63.824;20.288;2023-04-28T07:55:46;101491.25;;;4.58;77.31
13476;BME280;6810;63.824;20.288;2023-04-28T07:58:33;101499.06;;;4.62;76.79
13476;BME280;6810;63.824;20.288;2023-04-28T08:01:20;101494.56;;;4.67;77.91
13476;BME280;6810;63.824;20.288;2023-04-28T08:04:07;101486.59;;;4.69;76.47
13476;BME280;6810;63.824;20.288;2023-04-28T08:06:55;101497.00;;;4.76;76.65
13476;BME280;6810;63.824;20.288;2023-04-28T08:09:42;101489.88;;;4.78;76.93
13476;BME280;6810;63.824;20.288;2023-04-28T08:12:29;101489.78;;;4.84;77.41
13476;BME280;6810;63.824;20.288;2023-04-28T08:15:16;101499.25;;;4.93;76.49
13476;BME280;6810;63.824;20.288;2023-04-28T08:18:03;101499.16;;;4.97;75.79
13476;BME280;6810;63.824;20.288;2023-04-28T08:20:50;101503.41;;;5.03;75.93
13476;BME280;6810;63.824;20.288;2023-04-28T08:23:37;101501.53;;;5.08;75.32
13476;BME280;6810;63.824;20.288;2023-04-28T08:26:24;101496.09;;;5.14;75.19
13476;BME280;6810;63.824;20.288;2023-04-28T08:29:11;101496.91;;;5.17;75.42
13476;BME280;6810;63.824;20.288;2023-04-28T08:31:58;101488.78;;;5.25;75.24
13476;BME280;6810;63.824;20.288;2023-04-28T08:34:45;101478.22;;;5.25;74.48
13476;BME280;6810;63.824;20.288;2023-04-28T08:37:34;101487.53;;;5.39;75.55
13476;BME280;6810;63.824;20.288;2023-04-28T08:40:21;101488.31;;;5.45;75.11
13476;BME280;6810;63.824;20.288;2023-04-28T08:43:08;101491.72;;;5.50;74.23
13476;BME280;6810;63.824;20.288;2023-04-28T08:45:58;101493.28;;;5.57;74.04
13476;BME280;6810;63.824;20.288;2023-04-28T08:48:48;101496.63;;;5.63;73.39
13476;BME280;6810;63.824;20.288;2023-04-28T08:51:43;101492.97;;;5.69;73.06
13476;BME280;6810;63.824;20.288;2023-04-28T08:54:35;101489.22;;;5.77;74.11
13476;BME280;6810;63.824;20.288;2023-04-28T08:57:22;101483.75;;;5.85;73.13
13476;BME280;6810;63.824;20.288;2023-04-28T09:00:10;101480.91;;;5.92;72.87
13476;BME280;6810;63.824;20.288;2023-04-28T09:02:37;101476.31;;;5.99;72.43
13476;BME280;6810;63.824;20.288;2023-04-28T09:05:09;101465.44;;;6.09;72.47
13476;BME280;6810;63.824;20.288;2023-04-28T09:07:37;101464.38;;;6.15;72.41
13476;BME280;6810;63.824;20.288;2023-04-28T09:10:25;101469.47;;;6.22;71.67
13476;BME280;6810;63.824;20.288;2023-04-28T09:12:54;101466.72;;;6.25;71.55
13476;BME280;6810;63.824;20.288;2023-04-28T09:15:28;101472.59;;;6.36;71.11
13476;BME280;6810;63.824;20.288;2023-04-28T09:18:00;101466.22;;;6.43;70.20
13476;BME280;6810;63.824;20.288;2023-04-28T09:20:30;101463.44;;;6.48;70.17
13476;BME280;6810;63.824;20.288;2023-04-28T09:23:17;101468.50;;;6.55;70.32
13476;BME280;6810;63.824;20.288;2023-04-28T09:26:00;101472.72;;;6.61;69.72
13476;BME280;6810;63.824;20.288;2023-04-28T09:28:28;101475.25;;;6.65;69.57
13476;BME280;6810;63.824;20.288;2023-04-28T09:30:55;101474.16;;;6.71;69.40
13476;BME280;6810;63.824;20.288;2023-04-28T09:33:22;101474.00;;;6.77;69.24
13476;BME280;6810;63.824;20.288;2023-04-28T09:35:50;101431.22;;;6.61;68.61
13476;BME280;6810;63.824;20.288;2023-04-28T09:38:42;101470.94;;;6.90;68.66
13476;BME280;6810;63.824;20.288;2023-04-28T09:41:39;101467.06;;;7.00;68.92
13476;BME280;6810;63.824;20.288;2023-04-28T09:44:29;101455.38;;;7.07;68.19
13476;BME280;6810;63.824;20.288;2023-04-28T09:47:19;101456.66;;;7.22;68.03
13476;BME280;6810;63.824;20.288;2023-04-28T09:50:11;101446.88;;;7.24;67.80
13476;BME280;6810;63.824;20.288;2023-04-28T09:53:01;101467.47;;;7.42;67.50
13476;BME280;6810;63.824;20.288;2023-04-28T09:55:49;101460.34;;;7.44;67.57
13476;BME280;6810;63.824;20.288;2023-04-28T09:58:39;101467.16;;;7.51;67.15
13476;BME280;6810;63.824;20.288;2023-04-28T10:01:35;101462.63;;;7.55;66.85
13476;BME280;6810;63.824;20.288;2023-04-28T10:04:23;101461.69;;;7.56;66.65
13476;BME280;6810;63.824;20.288;2023-04-28T10:07:11;101458.94;;;7.59;66.64
13476;BME280;6810;63.824;20.288;2023-04-28T10:09:59;101456.16;;;7.62;66.54
13476;BME280;6810;63.824;20.288;2023-04-28T10:12:46;101458.66;;;7.66;66.30
13476;BME280;6810;63.824;20.288;2023-04-28T10:15:36;101458.44;;;7.72;66.34
13476;BME280;6810;63.824;20.288;2023-04-28T10:18:24;101455.53;;;7.80;65.90
13476;BME280;6810;63.824;20.288;2023-04-28T10:21:17;101438.66;;;7.82;65.96
13476;BME280;6810;63.824;20.288;2023-04-28T10:24:09;101453.16;;;7.97;65.36
13476;BME280;6810;63.824;20.288;2023-04-28T10:27:01;101453.75;;;8.05;65.11
13476;BME280;6810;63.824;20.288;2023-04-28T10:29:49;101454.41;;;8.11;64.58
13476;BME280;6810;63.824;20.288;2023-04-28T10:35:52;101459.66;;;8.13;64.46
13476;BME280;6810;63.824;20.288;2023-04-28T10:39:07;101457.84;;;8.13;64.22
13476;BME280;6810;63.824;20.288;2023-04-28T10:41:54;101457.78;;;8.15;64.32
13476;BME280;6810;63.824;20.288;2023-04-28T10:44:41;101466.63;;;8.15;64.12
13476;BME280;6810;63.824;20.288;2023-04-28T10:56:36;101462.38;;;8.11;64.78
13476;BME280;6810;63.824;20.288;2023-04-28T10:59:24;101453.91;;;8.25;65.09
13476;BME280;6810;63.824;20.288;2023-04-28T11:02:35;101462.06;;;8.43;65.24
13476;BME280;6810;63.824;20.288;2023-04-28T11:05:22;101459.56;;;8.62;64.74
13476;BME280;6810;63.824;20.288;2023-04-28T11:11:13;101458.97;;;9.00;64.17
13476;BME280;6810;63.824;20.288;2023-04-28T11:17:10;101464.50;;;9.37;62.46
13476;BME280;6810;63.824;20.288;2023-04-28T11:19:58;101461.38;;;9.48;61.82
13476;BME280;6810;63.824;20.288;2023-04-28T11:22:51;101467.94;;;9.61;62.58
13476;BME280;6810;63.824;20.288;2023-04-28T11:25:55;101462.97;;;9.73;61.67
13476;BME280;6810;63.824;20.288;2023-04-28T11:28:46;101425.91;;;9.69;61.36
13476;BME280;6810;63.824;20.288;2023-04-28T11:31:34;101467.88;;;10.02;60.23
13476;BME280;6810;63.824;20.288;2023-04-28T11:34:21;101468.16;;;10.16;59.96
13476;BME280;6810;63.824;20.288;2023-04-28T11:37:14;101427.00;;;10.03;59.93
13476;BME280;6810;63.824;20.288;2023-04-28T11:40:11;101461.00;;;10.37;60.06
13476;BME280;6810;63.824;20.288;2023-04-28T11:42:59;101465.09;;;10.44;59.97
13476;BME280;6810;63.824;20.288;2023-04-28T11:45:46;101461.88;;;10.56;59.45
13476;BME280;6810;63.824;20.288;2023-04-28T11:48:33;101466.00;;;10.63;59.59
13476;BME280;6810;63.824;20.288;2023-04-28T11:51:33;101467.50;;;10.69;59.63
13476;BME280;6810;63.824;20.288;2023-04-28T11:54:25;101467.06;;;10.78;58.53
13476;BME280;6810;63.824;20.288;2023-04-28T11:57:17;101445.19;;;10.71;59.71
13476;BME280;6810;63.824;20.288;2023-04-28T12:00:15;101469.13;;;10.91;59.87
13476;BME280;6810;63.824;20.288;2023-04-28T12:03:08;101472.09;;;11.02;58.48
13476;BME280;6810;63.824;20.288;2023-04-28T12:05:56;101466.25;;;11.13;58.96
13476;BME280;6810;63.824;20.288;2023-04-28T12:08:43;101467.47;;;11.24;58.69
13476;BME280;6810;63.824;20.288;2023-04-28T12:11:31;101465.31;;;11.32;57.86
13476;BME280;6810;63.824;20.288;2023-04-28T12:14:18;101474.06;;;11.34;58.29
13476;BME280;6810;63.824;20.288;2023-04-28T12:17:05;101470.41;;;11.37;57.71
13476;BME280;6810;63.824;20.288;2023-04-28T12:19:57;101467.00;;;11.33;57.18
13476;BME280;6810;63.824;20.288;2023-04-28T12:22:49;101444.34;;;11.25;56.99
13476;BME280;6810;63.824;20.288;2023-04-28T12:25:45;101466.63;;;11.41;57.78
13476;BME280;6810;63.824;20.288;2023-04-28T12:28:36;101400.56;;;11.10;57.24
13476;BME280;6810;63.824;20.288;2023-04-28T12:31:24;101461.56;;;11.53;57.31
13476;BME280;6810;63.824;20.288;2023-04-28T12:34:11;101454.19;;;11.58;56.59
13476;BME280;6810;63.824;20.288;2023-04-28T12:37:02;101438.69;;;11.48;55.96
13476;BME280;6810;63.824;20.288;2023-04-28T12:39:50;101449.00;;;11.55;56.59
13476;BME280;6810;63.824;20.288;2023-04-28T12:42:37;101447.19;;;11.56;55.82
13476;BME280;6810;63.824;20.288;2023-04-28T12:45:24;101444.50;;;11.56;55.13
13476;BME280;6810;63.824;20.288;2023-04-28T12:48:11;101428.06;;;11.46;56.13
13476;BME280;6810;63.824;20.288;2023-04-28T12:50:58;101440.03;;;11.56;55.25
13476;BME280;6810;63.824;20.288;2023-04-28T12:53:45;101431.88;;;11.59;54.93
13476;BME280;6810;63.824;20.288;2023-04-28T12:56:32;101423.22;;;11.54;56.03
13476;BME280;6810;63.824;20.288;2023-04-28T12:59:20;101428.16;;;11.62;55.69
13476;BME280;6810;63.824;20.288;2023-04-28T13:02:07;101433.38;;;11.65;54.85
13476;BME280;6810;63.824;20.288;2023-04-28T13:04:55;101430.72;;;11.65;55.44
13476;BME280;6810;63.824;20.288;2023-04-28T13:07:42;101439.09;;;11.57;55.38
13476;BME280;6810;63.824;20.288;2023-04-28T13:10:29;101434.28;;;11.47;55.33
13476;BME280;6810;63.824;20.288;2023-04-28T13:13:16;101424.00;;;11.39;54.36
13476;BME280;6810;63.824;20.288;2023-04-28T13:16:03;101442.28;;;11.30;55.38
13476;BME280;6810;63.824;20.288;2023-04-28T13:18:50;101441.59;;;11.26;54.89
13476;BME280;6810;63.824;20.288;2023-04-28T13:21:41;101411.63;;;11.03;50.70
13476;BME280;6810;63.824;20.288;2023-04-28T13:24:28;101428.72;;;10.99;53.13
13476;BME280;6810;63.824;20.288;2023-04-28T13:27:15;101433.50;;;10.92;52.73
13476;BME280;6810;63.824;20.288;2023-04-28T13:30:04;101429.38;;;10.85;53.59
13476;BME280;6810;63.824;20.288;2023-04-28T13:32:51;101427.22;;;10.75;53.43
13476;BME280;6810;63.824;20.288;2023-04-28T13:35:38;101425.78;;;10.68;55.02
13476;BME280;6810;63.824;20.288;2023-04-28T13:38:25;101417.22;;;10.61;54.44
13476;BME280;6810;63.824;20.288;2023-04-28T13:41:12;101420.53;;;10.66;55.11
13476;BME280;6810;63.824;20.288;2023-04-28T13:43:59;101419.72;;;10.64;54.42
13476;BME280;6810;63.824;20.288;2023-04-28T13:46:46;101419.81;;;10.63;55.61
13476;BME280;6810;63.824;20.288;2023-04-28T13:49:34;101414.53;;;10.61;54.52
13476;BME280;6810;63.824;20.288;2023-04-28T13:52:21;101414.41;;;10.64;55.42
13476;BME280;6810;63.824;20.288;2023-04-28T13:55:08;101376.50;;;10.57;54.39
13476;BME280;6810;63.824;20.288;2023-04-28T13:57:55;101407.03;;;10.88;54.15
13476;BME280;6810;63.824;20.288;2023-04-28T14:00:43;101413.56;;;10.99;54.84
13476;BME280;6810;63.824;20.288;2023-04-28T14:03:30;101401.41;;;10.94;54.08
13476;BME280;6810;63.824;20.288;2023-04-28T14:06:17;101410.69;;;10.85;55.09
13476;BME280;6810;63.824;20.288;2023-04-28T14:09:04;101408.41;;;10.78;55.12
13476;BME280;6810;63.824;20.288;2023-04-28T14:11:51;101395.59;;;10.67;55.14
13476;BME280;6810;63.824;20.288;2023-04-28T14:14:41;101395.22;;;10.56;55.31
13476;BME280;6810;63.824;20.288;2023-04-28T14:17:28;101417.28;;;10.60;54.94
13476;BME280;6810;63.824;20.288;2023-04-28T14:20:16;101401.88;;;10.47;55.06
13476;BME280;6810;63.824;20.288;2023-04-28T14:23:03;101398.63;;;10.41;55.83
13476;BME280;6810;63.824;20.288;2023-04-28T14:25:51;101408.72;;;10.34;55.86
13476;BME280;6810;63.824;20.288;2023-04-28T14:28:38;101405.41;;;10.29;55.83
13476;BME280;6810;63.824;20.288;2023-04-28T14:31:25;101396.75;;;10.24;55.72
13476;BME280;6810;63.824;20.288;2023-04-28T14:34:12;101407.59;;;10.20;56.51
13476;BME280;6810;63.824;20.288;2023-04-28T14:36:59;101392.13;;;10.09;55.61
13476;BME280;6810;63.824;20.288;2023-04-28T14:39:47;101388.81;;;10.03;55.68
13476;BME280;6810;63.824;20.288;2023-04-28T14:42:35;101393.44;;;9.99;56.71
13476;BME280;6810;63.824;20.288;2023-04-28T14:45:22;101387.53;;;9.93;56.88
13476;BME280;6810;63.824;20.288;2023-04-28T14:48:09;101391.03;;;9.93;56.09
13476;BME280;6810;63.824;20.288;2023-04-28T14:50:57;101391.25;;;9.89;56.85
13476;BME280;6810;63.824;20.288;2023-04-28T14:53:44;101363.72;;;9.70;55.96
13476;BME280;6810;63.824;20.288;2023-04-28T14:56:31;101394.03;;;9.86;57.14
13476;BME280;6810;63.824;20.288;2023-04-28T14:59:18;101390.53;;;9.85;56.30
13476;BME280;6810;63.824;20.288;2023-04-28T15:02:05;101389.78;;;9.82;56.52
13476;BME280;6810;63.824;20.288;2023-04-28T15:04:54;101384.59;;;9.79;56.90